Whale Point, California Weather observations

Data are for observation ending at time listed.
 Day   Time    Ave.   Ave.  Ave.  Vector   Max.   Stn.    Total    Solar   Ave.  
  of    of     Air    Rel.  Wind   Wind    Wind   Baro.  Precip.   Rad.    Soil  
Year   Day     Temp.  Hum.  Speed  Dir.    Gust   Pres.                    Temp. 
2026   (PST)    F      %     mph   deg.    mph     mb.     in.     W/m2     F   
------------------------------------------------------------------------------
 124    9:40   56.3    68    4.4   219      5.9   994.8    0.00     435    63.6
 124    9:50   56.8    68    4.6   220      6.2   995.0    0.00     424    63.6
 124   10:00   56.8    69    4.6   221      6.2   995.0    0.00     449    63.6
 124   10:10   57.4    69    4.3   223      6.6   995.0    0.00     461    63.6
 124   10:20   57.9    68    4.1   224      6.3   995.0    0.00     437    63.6
 124   10:30   57.7    69    4.5   221      6.6   995.0    0.00     476    63.6
 124   10:40   59.4    67    5.1   224      8.4   995.0    0.00     457    63.6
 124   10:50   58.8    68    5.6   221      8.2   995.1    0.00     454    63.6
 124   11:00   59.8    67    4.6   230      7.6   995.1    0.00     480    63.6
 124   11:10   60.3    66    4.0   233      8.2   995.1    0.00     466    63.6
 124   11:20   61.6    65    2.6   247      7.7   995.1    0.00     467    63.7
 124   11:30   61.6    63    3.2   244      7.2   995.0    0.00     450    63.7
 124   11:40   62.0    62    3.0   258      7.9   995.1    0.00     451    63.7
 124   11:50   62.3    63    3.7   236      9.1   995.0    0.00     464    63.7
 124   12:00   61.9    65    3.4   235      7.9   994.9    0.00     494    63.8
 124   12:10   62.0    64    2.6   275     10.5   994.9    0.00     501    63.8
 124   12:20   60.8    64    2.6   279      8.2   994.9    0.00     534    63.9
 124   12:30   61.0    66    3.9   233      7.7   994.8    0.00     626    64.0
 124   12:40   62.0    62    3.2   294      6.1   994.9    0.00     613    64.1
 124   12:50   60.2    63    3.1   310      6.6   995.1    0.00     653    64.2
 124   13:00   59.9    63    2.8   281      8.8   995.1    0.00     729    64.3
 124   13:10   61.9    60    3.0   284      7.7   995.2    0.00     763    64.4
 124   13:20   61.1    57    3.7   314      7.6   995.2    0.00     704    64.5
 124   13:30   61.9    57    3.4   300      7.5   995.2    0.00     665    64.6
 124   13:40   63.6    54    3.1   305      5.8   995.2    0.00     574    64.7
 124   13:50   59.6    58    4.9   314      8.3   995.1    0.00     579    64.9
 124   14:00   57.3    61    4.2   309      7.2   995.0    0.00     678    65.1
 124   14:10   56.9    62    4.0   291      7.9   994.9    0.00     835    65.2
 124   14:20   56.9    64    4.3   227     10.0   994.8    0.00     992    65.4
 124   14:30   57.3    64    4.2   223      9.1   994.8    0.00    1106    65.6
 124   14:40   57.1    65    4.3   218     11.0   994.7    0.00    1227    65.7
 124   14:50   57.1    67    4.1   257     10.1   994.6    0.00    1346    65.8
 124   15:00   57.6    69    4.2   212     11.7   994.3    0.00    1418    66.0
 124   15:10   57.5    69    4.8   217     15.3   994.3    0.00    1436    66.1
 124   15:20   56.7    69    5.2   222     10.7   994.2    0.00    1452    66.2
 124   15:30   56.6    67    4.7   278     10.2   994.1    0.00    1474    66.3
 124   15:40   56.3    66    5.0   273     11.1   994.0    0.00    1520    66.4
 124   15:50   56.1    67    4.9   281      9.6   994.1    0.00    1583    66.5
 124   16:00   55.9    65    4.2   240     10.5   994.0    0.00    1598    66.6
 124   16:10   56.4    65    2.9   333      8.2   994.0    0.00    1647    66.7
 124   16:20   55.7    67    5.7     8     12.5   993.9    0.00    1704    66.8
 124   16:30   55.4    69    5.2   354     12.6   993.9    0.00    1778    66.8
 124   16:40   55.6    70    4.3    10     10.4   994.0    0.00    1857    66.9
 124   16:50   56.5    69    2.2   321      6.6   993.9    0.00    1905    66.9
 124   17:00   57.6    69    3.6   338      8.7   993.8    0.00    1889    66.9
 124   17:10   57.7    70    4.0   356     10.2   993.7    0.00    1859    66.9
 124   17:20   57.6    71    6.5   352     14.9   993.6    0.00    1849    67.0
 124   17:30   57.1    72    4.9    26     14.2   993.5    0.00    1871    67.0
 124   17:40   57.3    70    6.0    10     15.0   993.4    0.00    1903    67.0
 124   17:50   55.9    73    4.1   346     13.3   993.4    0.00    1925    67.1
 124   18:00   54.7    76    7.2    12     16.8   993.4    0.00    1888    67.1
 124   18:10   53.9    79    9.7    11     21.0   993.3    0.00    1942    67.2
 124   18:20   53.8    80    9.7     6     15.6   993.2    0.00    2061    67.1
 124   18:30   53.6    81    9.0   360     17.1   993.2    0.00    2184    67.1
 124   18:40   53.5    80    9.8   360     20.2   993.2    0.00    2264    67.1
 124   18:50   53.5    79   10.4   357     14.4   993.3    0.00    2368    67.1
 124   19:00   53.7    79    8.8   344     15.1   993.4    0.00    2438    67.1
 124   19:10   53.7    80    8.6   349     13.3   993.6    0.00    2490    67.1
 124   19:20   53.6    80    9.2   357     12.9   993.7    0.00    2518    67.1
 124   19:30   53.6    80    8.4   359     12.2   993.8    0.00    2526    67.1
 124   19:40   53.6    80    8.0   360     17.8   993.9    0.00    2542    67.0
 124   19:50   53.6    80    7.1     2     12.1   993.9    0.00    2558    67.0
 124   20:00   53.7    78    6.4     3     10.2   993.9    0.00    2535    67.0
 124   20:10   53.7    77    3.8   352      6.7   993.9    0.00    2539    66.9
 124   20:20   53.7    78    4.7    10      7.4   994.0    0.00    2527    66.9
 124   20:30   53.7    76    3.9     3      6.2   994.0    0.00    2546    66.8
 124   20:40   53.8    77    1.4   326      3.1   994.1    0.00    2573    66.8
 124   20:50   53.5    76    3.1   352      8.1   994.1    0.00    2548    66.8
 124   21:00   53.4    75    5.1     3     10.2   994.1    0.00    2542    66.7
 124   21:10   53.4    72    5.1    28     11.7   994.1    0.00    2544    66.7
 124   21:20   53.3    72    3.2    22      7.5   994.2    0.00    2570    66.6
 124   21:30   53.2    72    2.2     9      4.8   994.2    0.00    2588    66.6
 124   21:40   53.2    73    1.1    19      2.6   994.2    0.00    2625    66.5
 124   21:50   52.9    75    1.0    35      1.8   994.0    0.00    2685    66.5
 124   22:00   52.7    76    0.4   173      1.2   993.9    0.00    2742    66.4
 124   22:10   52.6    75    0.6   163      1.8   993.9    0.00    2801    66.3
 124   22:20   52.5    75    0.9   149      2.0   993.8    0.00    2876    66.3
 124   22:30   52.3    76    1.5   108      2.0   993.8    0.00    2900    66.2
 124   22:40   52.3    76    1.4    92      2.2   993.8    0.00    2928    66.2
 124   22:50   52.2    76    2.2    79      4.2   993.8    0.00    2960    66.1
 124   23:00   52.1    76    2.7    89      5.3   993.8    0.00    2986    66.0
 124   23:10   52.1    76    2.2    94      4.2   993.8    0.00    2995    66.0
 124   23:20   52.1    75    2.6   111      6.0   993.9    0.00    3011    65.9
 124   23:30   52.0    74    2.8    84      5.0   993.9    0.00    2982    65.8
 124   23:40   51.7    73    2.5    85      4.2   993.9    0.00    2970    65.8
 124   23:50   51.7    72    3.3    83      5.0   993.9    0.00    2989    65.7
 125    0:00   52.1    71    4.2    79      6.0   993.9    0.00    2975    65.7
 125    0:10   52.3    71    2.9    88      6.2   993.9    0.00    2965    65.6
 125    0:20   52.6    72    2.0   104      3.4   993.8    0.00    2958    65.5
 125    0:30   52.6    74    1.1    96      2.7   993.9    0.00    2930    65.5
 125    0:40   52.4    76    0.8    79      2.3   993.9    0.00    2900    65.4
 125    0:50   52.2    78    1.7    95      3.4   993.8    0.00    2886    65.3
 125    1:00   52.0    77    2.1    81      3.9   993.8    0.00    2884    65.3
 125    1:10   51.5    75    3.1    70      5.9   993.6    0.00    2873    65.2
 125    1:20   51.2    74    4.4    69      6.6   993.6    0.00    2905    65.2
 125    1:30   51.4    74    4.2    66      6.8   993.4    0.00    2920    65.1
 125    1:40   51.3    73    4.5    70      6.6   993.3    0.00    2938    65.1
 125    1:50   51.3    73    4.3    72      6.2   993.3    0.00    2926    65.0
 125    2:00   51.7    71    2.6    96      4.9   993.3    0.00    2969    64.9
 125    2:10   52.1    72    1.9    86      3.8   993.3    0.00    2928    64.9
 125    2:20   52.1    71    2.3    82      3.6   993.3    0.00    2905    64.8
 125    2:30   52.0    72    1.4   111      2.3   993.3    0.00    2902    64.8
 125    2:40   51.8    76    1.5   120      2.9   993.3    0.00    2888    64.7
 125    2:50   51.7    76    1.6    95      2.6   993.3    0.00    2884    64.7
 125    3:00   51.5    75    2.0    93      3.8   993.3    0.00    2867    64.6
 125    3:10   51.7    76    2.7    89      5.0   993.3    0.00    2876    64.6
 125    3:20   51.3    74    3.4    78      4.5   993.2    0.00    2919    64.5
 125    3:30   51.6    72    2.0    93      3.7   993.2    0.00    2909    64.5
 125    3:40   51.7    72    1.9   107      3.6   993.1    0.00    2915    64.4
 125    3:50   52.0    73    0.9   114      2.3   993.1    0.00    2902    64.3
 125    4:00   52.2    75    1.2    56      2.3   993.2    0.00    2879    64.3
 125    4:10   51.3    75    3.2    68      6.0   993.1    0.00    2874    64.3
 125    4:20   50.9    74    6.2    75      8.3   993.0    0.00    2929    64.2
 125    4:30   50.8    75    6.1    70      8.6   993.0    0.00    2951    64.1
 125    4:40   50.5    75    5.4    66      7.5   993.0    0.00    2955    64.1
 125    4:50   51.0    73    4.5    59      6.1   993.1    0.00    2980    64.1
 125    5:00   51.6    72    4.5    44      6.6   993.0    0.00    2999    64.0
 125    5:10   51.5    72    3.3    36      6.0   993.1    0.00    2978    64.0
 125    5:20   51.3    73    2.9    48      4.8   993.2    0.00    2988    63.9
 125    5:30   51.9    72    3.1    63      5.8   993.2    0.00    2990    63.8
 125    5:40   52.0    71    2.5    94      5.2   993.2    0.00    2981    63.8
 125    5:50   52.4    70    1.0   154      2.3   993.3    0.00    2952    63.8
 125    6:00   52.4    70    1.0    92      2.1   993.4    0.00    2899    63.7
 125    6:10   52.2    72    1.8    19      3.2   993.5    0.00    2843    63.7
 125    6:20   52.4    72    0.7    82      1.5   993.6    0.00    2814    63.6
 125    6:30   52.8    71    1.0    52      2.4   993.7    0.00    2774    63.6
 125    6:40   53.2    71    2.2    50      3.1   993.8    0.00    2729    63.5
 125    6:50   53.5    71    2.3    70      3.9   993.7    0.00    2687    63.4
 125    7:00   54.4    69    0.7   140      2.0   993.8    0.00    2604    63.4
 125    7:10   56.1    67    0.5   236      1.7   993.8    0.00    2430    63.3
 125    7:20   56.6    66    1.4   226      2.3   994.0    0.00    2174    63.3
 125    7:30   56.7    66    1.3   205      2.0   994.1    0.00    1883    63.2
 125    7:40   56.1    70    2.0   215      2.7   994.1    0.00    1748    63.2
 125    7:50   55.6    71    2.4   195      3.4   994.1    0.00    1640    63.2
 125    8:00   56.0    70    2.2   188      3.5   994.2    0.00    1530    63.2
 125    8:10   55.9    71    1.9   182      3.3   994.2    0.00    1491    63.2
 125    8:20   57.3    67    2.7   205      4.0   994.2    0.00    1375    63.2
 125    8:30   57.8    69    3.6   218      4.6   994.3    0.00    1129    63.1
 125    8:40   58.2    67    3.2   210      4.2   994.3    0.00     861    63.1
 125    8:50   57.5    70    3.4   223      4.8   994.4    0.00     763    63.1
 125    9:00   56.6    72    3.0   216      4.5   994.6    0.00     817    63.2
 125    9:10   56.8    72    3.8   215      5.5   994.5    0.00     861    63.2
 125    9:20   56.4    74    3.8   218      5.6   994.5    0.00     917    63.2
 125    9:30   56.4    72    2.7   214      5.4   994.6    0.00     964    63.2

Return to Whale Point graphs page.


Western Regional Climate Center,wrcc@dri.edu